createdAt,value
2023-02-03T00:00:40.283Z,2.10
2023-02-03T00:01:40.336Z,2.50
2023-02-03T00:02:40.329Z,2.30
2023-02-03T00:03:40.220Z,2.60
2023-02-03T00:04:40.250Z,2.40
2023-02-03T00:05:40.194Z,2.40
2023-02-03T00:06:40.206Z,2.60
2023-02-03T00:07:40.200Z,2.90
2023-02-03T00:08:40.197Z,2.80
2023-02-03T00:09:40.166Z,2.30
2023-02-03T00:10:40.184Z,2.40
2023-02-03T00:11:40.122Z,2.40
2023-02-03T00:12:40.165Z,2.50
2023-02-03T00:13:40.098Z,2.50
2023-02-03T00:14:40.099Z,2.10
2023-02-03T00:15:40.120Z,2.80
2023-02-03T00:16:40.148Z,2.40
2023-02-03T00:17:40.088Z,2.70
2023-02-03T00:18:40.036Z,2.30
2023-02-03T00:19:40.068Z,2.40
2023-02-03T00:20:40.005Z,2.50
2023-02-03T00:21:40.022Z,2.30
2023-02-03T00:22:39.971Z,2.30
2023-02-03T00:23:39.981Z,2.50
2023-02-03T00:24:39.967Z,2.20
2023-02-03T00:25:39.983Z,2.80
2023-02-03T00:26:39.927Z,2.60
2023-02-03T00:27:39.956Z,2.50
2023-02-03T00:28:39.896Z,2.40
2023-02-03T00:29:39.900Z,2.60
2023-02-03T00:30:39.883Z,2.40
2023-02-03T00:31:39.962Z,2.50
2023-02-03T00:32:39.879Z,2.20
2023-02-03T00:33:39.871Z,2.20
2023-02-03T00:34:39.845Z,2.40
2023-02-03T00:35:39.838Z,2.20
2023-02-03T00:36:41.983Z,2.60
2023-02-03T00:37:39.800Z,2.20
2023-02-03T00:38:39.769Z,2.40
2023-02-03T00:39:39.785Z,2.30
2023-02-03T00:40:39.742Z,2.10
2023-02-03T00:41:39.787Z,2.60
2023-02-03T00:42:39.712Z,2.20
2023-02-03T00:43:39.742Z,2.30
2023-02-03T00:44:39.694Z,2.40
2023-02-03T00:45:39.773Z,2.40
2023-02-03T00:46:39.720Z,2.20
2023-02-03T00:47:39.697Z,2.30
2023-02-03T00:48:39.656Z,2.20
2023-02-03T00:49:39.642Z,2.40
2023-02-03T00:50:39.612Z,2.40
2023-02-03T00:51:39.654Z,2.20
2023-02-03T00:52:39.598Z,2.60
2023-02-03T00:53:39.602Z,2.20
2023-02-03T00:54:39.654Z,2.40
2023-02-03T00:55:39.597Z,2.30
2023-02-03T00:56:39.533Z,2.10
2023-02-03T00:57:39.552Z,2.20
2023-02-03T00:58:39.510Z,2.70
2023-02-03T00:59:39.552Z,2.20
2023-02-03T01:00:39.502Z,2.60
2023-02-03T01:01:39.499Z,2.20
2023-02-03T01:02:39.571Z,2.50
2023-02-03T01:03:39.483Z,2.10
2023-02-03T01:04:39.471Z,2.10
2023-02-03T01:05:39.461Z,2.40
2023-02-03T01:06:39.400Z,2.20
2023-02-03T01:07:39.413Z,2.10
2023-02-03T01:08:39.398Z,2.20
2023-02-03T01:09:39.386Z,2.20
2023-02-03T01:10:39.372Z,2.20
2023-02-03T01:11:39.359Z,2.00
2023-02-03T01:12:39.348Z,2.10
2023-02-03T01:13:39.340Z,2.20
2023-02-03T01:14:39.305Z,2.20
2023-02-03T01:15:39.324Z,2.50
2023-02-03T01:16:39.303Z,2.20
2023-02-03T01:17:39.334Z,2.20
2023-02-03T01:18:39.252Z,2.00
2023-02-03T01:19:39.272Z,2.20
2023-02-03T01:20:39.215Z,1.90
2023-02-03T01:21:39.261Z,2.00
2023-02-03T01:22:39.198Z,2.00
2023-02-03T01:23:39.201Z,2.00
2023-02-03T01:24:39.175Z,2.00
2023-02-03T01:25:39.185Z,2.10
2023-02-03T01:26:39.167Z,1.80
2023-02-03T01:27:39.178Z,2.10
2023-02-03T01:28:39.112Z,2.30
2023-02-03T01:29:39.121Z,1.80
2023-02-03T01:30:39.217Z,2.10
2023-02-03T01:31:39.263Z,2.10
2023-02-03T01:32:39.085Z,2.00
2023-02-03T01:33:39.084Z,2.00
2023-02-03T01:34:39.034Z,2.10
2023-02-03T01:35:39.046Z,2.20
2023-02-03T01:36:39.040Z,1.80
2023-02-03T01:37:39.039Z,2.50
2023-02-03T01:38:38.991Z,2.10
2023-02-03T01:39:38.999Z,1.70
2023-02-03T01:40:38.991Z,2.10
2023-02-03T01:41:39.025Z,1.90
2023-02-03T01:42:38.934Z,2.00
2023-02-03T01:43:38.953Z,2.00
2023-02-03T01:44:38.920Z,2.10
2023-02-03T01:45:38.949Z,1.70
2023-02-03T01:46:38.889Z,1.90
2023-02-03T01:47:38.901Z,1.50
2023-02-03T01:48:38.862Z,1.70
2023-02-03T01:49:38.875Z,1.80
2023-02-03T01:50:38.860Z,2.00
2023-02-03T01:51:38.874Z,1.70
2023-02-03T01:52:38.802Z,1.60
2023-02-03T01:53:38.835Z,1.80
2023-02-03T01:54:38.788Z,1.60
2023-02-03T01:55:38.804Z,2.00
2023-02-03T01:56:38.753Z,1.90
2023-02-03T01:57:38.773Z,2.10
2023-02-03T01:58:38.728Z,1.90
2023-02-03T01:59:38.749Z,1.60
2023-02-03T02:00:38.716Z,1.60
2023-02-03T02:01:38.765Z,1.70
2023-02-03T02:02:38.711Z,1.60
2023-02-03T02:03:38.701Z,1.50
2023-02-03T02:04:38.649Z,2.10
2023-02-03T02:05:38.682Z,1.40
2023-02-03T02:06:38.629Z,1.40
2023-02-03T02:07:38.674Z,1.40
2023-02-03T02:08:38.634Z,1.70
2023-02-03T02:09:38.615Z,1.50
2023-02-03T02:10:38.562Z,1.70
2023-02-03T02:11:38.576Z,1.70
2023-02-03T02:12:38.557Z,1.50
2023-02-03T02:13:38.550Z,1.70
2023-02-03T02:14:38.520Z,1.60
2023-02-03T02:15:38.550Z,1.50
2023-02-03T02:16:38.501Z,1.70
2023-02-03T02:17:38.512Z,1.50
2023-02-03T02:18:38.464Z,1.90
2023-02-03T02:19:38.483Z,1.60
2023-02-03T02:20:38.438Z,1.70
2023-02-03T02:21:38.472Z,1.80
2023-02-03T02:22:38.409Z,1.20
2023-02-03T02:23:38.423Z,1.80
2023-02-03T02:24:38.390Z,1.70
2023-02-03T02:25:38.485Z,1.50
2023-02-03T02:26:38.374Z,1.50
2023-02-03T02:27:38.400Z,1.50
2023-02-03T02:28:38.363Z,1.40
2023-02-03T02:29:38.352Z,1.60
2023-02-03T02:30:38.402Z,1.50
2023-02-03T02:31:38.543Z,1.50
2023-02-03T02:32:38.309Z,1.70
2023-02-03T02:33:38.286Z,1.70
2023-02-03T02:34:38.272Z,1.50
2023-02-03T02:35:38.261Z,1.30
2023-02-03T02:36:38.254Z,1.80
2023-02-03T02:37:38.220Z,1.30
2023-02-03T02:38:38.236Z,1.50
2023-02-03T02:39:38.225Z,1.50
2023-02-03T02:40:38.203Z,1.80
2023-02-03T02:41:38.158Z,1.70
2023-02-03T02:42:38.191Z,1.80
2023-02-03T02:43:38.135Z,2.40
2023-02-03T02:44:38.144Z,1.80
2023-02-03T02:45:38.130Z,1.50
2023-02-03T02:46:38.185Z,1.50
2023-02-03T02:47:38.093Z,1.80
2023-02-03T02:48:38.118Z,2.10
2023-02-03T02:49:38.063Z,1.40
2023-02-03T02:50:38.101Z,1.70
2023-02-03T02:51:38.034Z,1.60
2023-02-03T02:52:38.058Z,1.80
2023-02-03T02:53:38.037Z,1.60
2023-02-03T02:54:38.037Z,1.80
2023-02-03T02:55:37.984Z,1.60
2023-02-03T02:56:37.986Z,1.50
2023-02-03T02:57:37.987Z,1.60
2023-02-03T02:58:37.980Z,1.60
2023-02-03T02:59:37.942Z,1.50
2023-02-03T03:00:37.994Z,1.60
2023-02-03T03:01:38.006Z,1.50
2023-02-03T03:02:37.917Z,1.70
2023-02-03T03:03:37.905Z,1.20
2023-02-03T03:04:37.936Z,1.50
2023-02-03T03:05:37.847Z,1.50
2023-02-03T03:06:37.904Z,1.40
2023-02-03T03:07:37.819Z,1.30
2023-02-03T03:08:37.859Z,1.50
2023-02-03T03:09:37.808Z,1.50
2023-02-03T03:10:37.820Z,1.60
2023-02-03T03:11:37.770Z,1.80
2023-02-03T03:12:37.839Z,1.50
2023-02-03T03:13:37.754Z,1.60
2023-02-03T03:14:37.748Z,1.70
2023-02-03T03:15:37.802Z,1.90
2023-02-03T03:16:37.785Z,1.40
2023-02-03T03:17:37.695Z,1.40
2023-02-03T03:18:37.701Z,1.40
2023-02-03T03:19:38.135Z,1.50
2023-02-03T03:20:37.689Z,1.40
2023-02-03T03:21:37.664Z,1.60
2023-02-03T03:22:37.694Z,1.50
2023-02-03T03:23:37.629Z,1.40
2023-02-03T03:24:37.643Z,1.30
2023-02-03T03:25:37.623Z,1.40
2023-02-03T03:26:37.602Z,1.50
2023-02-03T03:27:37.605Z,1.50
2023-02-03T03:28:37.580Z,1.50
2023-02-03T03:29:37.564Z,1.40
2023-02-03T03:30:37.655Z,1.60
2023-02-03T03:31:37.681Z,1.50
2023-02-03T03:32:37.523Z,1.90
2023-02-03T03:33:37.492Z,1.60
2023-02-03T03:34:37.514Z,1.40
2023-02-03T03:35:37.473Z,1.40
2023-02-03T03:36:37.482Z,1.50
2023-02-03T03:37:37.443Z,1.80
2023-02-03T03:38:37.480Z,1.60
2023-02-03T03:39:37.440Z,1.50
2023-02-03T03:40:37.426Z,1.50
2023-02-03T03:41:37.439Z,1.50
2023-02-03T03:42:37.412Z,1.60
2023-02-03T03:43:37.363Z,1.40
2023-02-03T03:44:37.395Z,1.50
2023-02-03T03:45:37.326Z,1.80
2023-02-03T03:46:37.362Z,1.30
2023-02-03T03:47:37.313Z,1.30
2023-02-03T03:48:37.322Z,1.50
2023-02-03T03:49:37.325Z,1.30
2023-02-03T03:50:37.302Z,1.40
2023-02-03T03:51:37.261Z,1.60
2023-02-03T03:52:37.274Z,1.30
2023-02-03T03:53:37.223Z,1.50
2023-02-03T03:54:37.273Z,1.40
2023-02-03T03:55:37.205Z,1.30
2023-02-03T03:56:37.208Z,1.60
2023-02-03T03:57:37.193Z,1.50
2023-02-03T03:58:37.193Z,1.40
2023-02-03T03:59:37.172Z,1.50
2023-02-03T04:00:37.179Z,1.50
2023-02-03T04:01:37.212Z,1.50
2023-02-03T04:02:37.302Z,1.70
2023-02-03T04:03:37.103Z,1.20
2023-02-03T04:04:37.136Z,1.10
2023-02-03T04:05:37.083Z,1.50
2023-02-03T04:06:37.085Z,1.40
2023-02-03T04:07:37.049Z,1.30
2023-02-03T04:08:37.095Z,1.20
2023-02-03T04:09:37.033Z,1.60
2023-02-03T04:10:37.036Z,1.50
2023-02-03T04:11:37.038Z,1.30
2023-02-03T04:12:37.013Z,1.40
2023-02-03T04:13:36.984Z,1.50
2023-02-03T04:14:37.014Z,1.50
2023-02-03T04:15:36.972Z,1.30
2023-02-03T04:16:36.995Z,1.30
2023-02-03T04:17:36.917Z,2.00
2023-02-03T04:18:36.922Z,1.50
2023-02-03T04:19:36.908Z,1.80
2023-02-03T04:20:36.933Z,1.70
2023-02-03T04:21:36.871Z,2.00
2023-02-03T04:22:36.886Z,1.70
2023-02-03T04:23:36.874Z,1.70
2023-02-03T04:24:36.907Z,2.20
2023-02-03T04:25:36.828Z,1.50
2023-02-03T04:26:36.829Z,1.50
2023-02-03T04:27:36.842Z,2.10
2023-02-03T04:28:36.872Z,1.80
2023-02-03T04:29:36.806Z,1.60
2023-02-03T04:30:36.821Z,2.00
2023-02-03T04:31:36.774Z,1.50
2023-02-03T04:32:36.719Z,2.00
2023-02-03T04:33:36.763Z,1.40
2023-02-03T04:34:36.705Z,2.10
2023-02-03T04:35:36.716Z,1.70
2023-02-03T04:36:36.675Z,5.00
2023-02-03T04:37:36.677Z,1.70
2023-02-03T04:38:36.675Z,2.00
2023-02-03T04:39:36.662Z,2.70
2023-02-03T04:40:36.619Z,3.00
2023-02-03T04:41:36.650Z,3.70
2023-02-03T04:42:36.605Z,2.70
2023-02-03T04:43:36.637Z,2.30
2023-02-03T04:44:36.586Z,3.00
2023-02-03T04:45:36.623Z,2.20
2023-02-03T04:46:36.542Z,2.50
2023-02-03T04:47:36.589Z,2.10
2023-02-03T04:48:36.514Z,2.50
2023-02-03T04:49:36.516Z,2.00
2023-02-03T04:50:36.490Z,1.70
2023-02-03T04:51:36.511Z,1.30
2023-02-03T04:52:36.507Z,1.60
2023-02-03T04:53:36.510Z,1.50
2023-02-03T04:54:36.438Z,1.40
2023-02-03T04:55:36.473Z,1.80
2023-02-03T04:56:36.416Z,1.40
2023-02-03T04:57:36.452Z,1.60
2023-02-03T04:58:36.388Z,1.30
2023-02-03T04:59:36.410Z,1.40
2023-02-03T05:00:36.393Z,1.50
2023-02-03T05:01:36.374Z,1.30
2023-02-03T05:02:36.332Z,1.40
2023-02-03T05:03:36.440Z,1.70
2023-02-03T05:04:36.305Z,1.50
2023-02-03T05:05:36.360Z,1.70
2023-02-03T05:06:36.298Z,2.10
2023-02-03T05:07:36.289Z,1.50
2023-02-03T05:08:36.254Z,1.60
2023-02-03T05:09:36.277Z,1.90
2023-02-03T05:10:36.239Z,1.50
2023-02-03T05:11:36.266Z,1.50
2023-02-03T05:12:36.218Z,1.70
2023-02-03T05:13:36.220Z,1.60
2023-02-03T05:14:36.186Z,1.60
2023-02-03T05:15:36.201Z,1.40
2023-02-03T05:16:36.247Z,1.50
2023-02-03T05:17:36.175Z,1.70
2023-02-03T05:18:36.126Z,1.30
2023-02-03T05:19:36.149Z,1.30
2023-02-03T05:20:36.103Z,1.40
2023-02-03T05:21:36.145Z,1.40
2023-02-03T05:22:36.075Z,1.30
2023-02-03T05:23:36.829Z,1.60
2023-02-03T05:24:36.048Z,1.40
2023-02-03T05:25:36.075Z,2.10
2023-02-03T05:26:36.041Z,2.40
2023-02-03T05:27:36.118Z,5.00
2023-02-03T05:28:36.003Z,2.80
2023-02-03T05:29:36.010Z,2.80
2023-02-03T05:30:36.004Z,2.30
2023-02-03T05:31:36.183Z,2.80
2023-02-03T05:32:35.982Z,2.00
2023-02-03T05:33:35.954Z,4.40
2023-02-03T05:34:35.925Z,2.00
2023-02-03T05:35:35.959Z,2.30
2023-02-03T05:36:35.905Z,1.70
2023-02-03T05:37:35.911Z,7.90
2023-02-03T05:38:35.883Z,3.00
2023-02-03T05:39:35.913Z,2.60
2023-02-03T05:40:35.897Z,1.60
2023-02-03T05:41:35.875Z,2.10
2023-02-03T05:42:35.831Z,2.30
2023-02-03T05:43:35.858Z,1.90
2023-02-03T05:44:35.795Z,2.90
2023-02-03T05:45:35.864Z,2.60
2023-02-03T05:46:35.797Z,2.50
2023-02-03T05:47:35.782Z,2.20
2023-02-03T05:48:35.764Z,2.40
2023-02-03T05:49:35.747Z,3.10
2023-02-03T05:50:38.360Z,2.00
2023-02-03T05:51:35.755Z,1.50
2023-02-03T05:52:35.693Z,1.90
2023-02-03T05:53:35.702Z,1.50
2023-02-03T05:54:35.670Z,1.40
2023-02-03T05:55:35.697Z,1.60
2023-02-03T05:56:35.648Z,1.90
2023-02-03T05:57:35.692Z,1.60
2023-02-03T05:58:35.616Z,1.80
2023-02-03T05:59:35.616Z,2.20
2023-02-03T06:00:35.585Z,1.60
2023-02-03T06:01:35.619Z,1.70
2023-02-03T06:02:35.585Z,1.70
2023-02-03T06:03:35.660Z,2.10
2023-02-03T06:04:35.589Z,2.00
2023-02-03T06:05:35.586Z,1.70
2023-02-03T06:06:35.592Z,1.50
2023-02-03T06:07:35.517Z,1.40
2023-02-03T06:08:35.512Z,1.50
2023-02-03T06:09:35.517Z,1.40
2023-02-03T06:10:35.461Z,1.30
2023-02-03T06:11:35.483Z,1.60
2023-02-03T06:12:35.434Z,1.10
2023-02-03T06:13:35.442Z,1.30
2023-02-03T06:14:35.398Z,1.80
2023-02-03T06:15:35.403Z,1.90
2023-02-03T06:16:35.409Z,1.60
2023-02-03T06:17:35.421Z,1.60
2023-02-03T06:18:35.363Z,1.50
2023-02-03T06:19:35.371Z,1.90
2023-02-03T06:20:35.367Z,1.30
2023-02-03T06:21:35.355Z,2.10
2023-02-03T06:22:35.329Z,1.80
2023-02-03T06:23:35.322Z,1.80
2023-02-03T06:24:35.276Z,1.90
2023-02-03T06:25:35.286Z,1.30
2023-02-03T06:26:35.262Z,1.80
2023-02-03T06:27:35.292Z,2.00
2023-02-03T06:28:35.262Z,1.40
2023-02-03T06:29:35.242Z,1.70
2023-02-03T06:30:35.300Z,1.50
2023-02-03T06:31:35.373Z,1.90
2023-02-03T06:32:35.174Z,1.70
2023-02-03T06:33:35.196Z,1.40
2023-02-03T06:34:35.165Z,1.60
2023-02-03T06:35:35.185Z,1.80
2023-02-03T06:36:35.115Z,1.80
2023-02-03T06:37:35.180Z,1.40
2023-02-03T06:38:35.098Z,1.40
2023-02-03T06:39:35.119Z,1.80
2023-02-03T06:40:35.074Z,1.90
2023-02-03T06:41:35.097Z,1.50
2023-02-03T06:42:35.095Z,1.70
2023-02-03T06:43:35.077Z,2.00
2023-02-03T06:44:35.022Z,1.40
2023-02-03T06:45:35.025Z,1.60
2023-02-03T06:46:35.019Z,2.00
2023-02-03T06:47:35.050Z,1.60
2023-02-03T06:48:35.027Z,1.70
2023-02-03T06:49:34.976Z,1.70
2023-02-03T06:50:34.974Z,1.60
2023-02-03T06:51:34.949Z,1.50
2023-02-03T06:52:34.912Z,1.40
2023-02-03T06:53:34.922Z,1.50
2023-02-03T06:54:34.925Z,1.70
2023-02-03T06:55:34.895Z,1.60
2023-02-03T06:56:34.855Z,1.90
2023-02-03T06:57:34.881Z,1.70
2023-02-03T06:58:34.832Z,1.70
2023-02-03T06:59:34.881Z,2.00
2023-02-03T07:00:34.833Z,1.50
2023-02-03T07:01:34.849Z,1.70
2023-02-03T07:02:34.782Z,1.60
2023-02-03T07:03:34.805Z,1.60
2023-02-03T07:04:34.798Z,2.00
2023-02-03T07:05:34.790Z,2.00
2023-02-03T07:06:34.728Z,1.80
2023-02-03T07:07:34.753Z,1.80
2023-02-03T07:08:34.746Z,1.80
2023-02-03T07:09:34.740Z,1.70
2023-02-03T07:10:34.725Z,1.90
2023-02-03T07:11:34.697Z,2.00
2023-02-03T07:12:34.645Z,2.10
2023-02-03T07:13:34.710Z,1.90
2023-02-03T07:14:34.642Z,1.70
2023-02-03T07:15:34.686Z,1.80
2023-02-03T07:16:34.608Z,1.80
2023-02-03T07:17:34.632Z,1.90
2023-02-03T07:18:49.954Z,1.80
2023-02-03T07:19:34.697Z,1.50
2023-02-03T07:20:34.559Z,1.70
2023-02-03T07:21:34.549Z,1.80
2023-02-03T07:22:34.524Z,1.50
2023-02-03T07:23:34.597Z,1.70
2023-02-03T07:24:34.527Z,1.70
2023-02-03T07:25:34.541Z,1.90
2023-02-03T07:26:34.502Z,1.50
2023-02-03T07:27:34.487Z,2.10
2023-02-03T07:28:34.540Z,2.10
2023-02-03T07:29:34.499Z,1.70
2023-02-03T07:30:34.417Z,1.70
2023-02-03T07:31:34.567Z,2.00
2023-02-03T07:32:34.425Z,1.90
2023-02-03T07:33:34.483Z,1.90
2023-02-03T07:34:34.365Z,1.90
2023-02-03T07:35:34.368Z,1.70
2023-02-03T07:36:34.343Z,2.00
2023-02-03T07:37:34.383Z,1.60
2023-02-03T07:38:34.311Z,1.60
2023-02-03T07:39:34.348Z,1.90
2023-02-03T07:40:34.321Z,1.90
2023-02-03T07:41:34.299Z,1.70
2023-02-03T07:42:34.282Z,1.70
2023-02-03T07:43:34.281Z,1.80
2023-02-03T07:44:34.242Z,1.90
2023-02-03T07:45:34.283Z,2.10
2023-02-03T07:46:34.242Z,1.80
2023-02-03T07:47:34.230Z,1.90
2023-02-03T07:48:34.192Z,2.10
2023-02-03T07:49:34.194Z,2.00
2023-02-03T07:50:34.190Z,2.20
2023-02-03T07:51:34.225Z,2.10
2023-02-03T07:52:34.144Z,2.00
2023-02-03T07:53:34.143Z,2.10
2023-02-03T07:54:34.099Z,2.00
2023-02-03T07:55:34.148Z,2.20
2023-02-03T07:56:34.212Z,2.30
2023-02-03T07:57:34.105Z,2.10
2023-02-03T07:58:34.070Z,2.50
2023-02-03T07:59:34.063Z,2.40
2023-02-03T08:00:34.054Z,2.40
2023-02-03T08:01:34.098Z,2.10
2023-02-03T08:02:34.160Z,2.30
2023-02-03T08:03:34.036Z,2.20
2023-02-03T08:04:34.057Z,2.30
2023-02-03T08:05:33.985Z,1.90
2023-02-03T08:06:33.978Z,2.20
2023-02-03T08:07:33.975Z,2.10
2023-02-03T08:08:33.927Z,2.20
2023-02-03T08:09:33.933Z,2.50
2023-02-03T08:10:33.886Z,2.10
2023-02-03T08:11:33.957Z,1.80
2023-02-03T08:12:33.869Z,2.10
2023-02-03T08:13:33.880Z,2.30
2023-02-03T08:14:33.827Z,2.60
2023-02-03T08:15:33.889Z,2.10
2023-02-03T08:16:33.888Z,2.10
2023-02-03T08:17:33.921Z,2.10
2023-02-03T08:18:33.827Z,2.00
2023-02-03T08:19:33.808Z,2.20
2023-02-03T08:20:33.786Z,2.20
2023-02-03T08:21:33.789Z,2.10
2023-02-03T08:22:33.765Z,2.50
2023-02-03T08:23:33.744Z,2.00
2023-02-03T08:24:33.711Z,2.50
2023-02-03T08:25:33.717Z,2.20
2023-02-03T08:26:33.730Z,2.10
2023-02-03T08:27:33.717Z,2.60
2023-02-03T08:28:33.660Z,2.40
2023-02-03T08:29:33.679Z,2.40
2023-02-03T08:30:33.683Z,2.70
2023-02-03T08:31:33.818Z,2.50
2023-02-03T08:32:33.637Z,3.10
2023-02-03T08:33:33.710Z,2.50
2023-02-03T08:34:33.574Z,2.30
2023-02-03T08:35:33.594Z,2.40
2023-02-03T08:36:33.601Z,2.50
2023-02-03T08:37:33.575Z,2.10
2023-02-03T08:38:33.535Z,2.10
2023-02-03T08:39:33.543Z,2.00
2023-02-03T08:40:33.500Z,2.40
2023-02-03T08:41:33.555Z,3.10
2023-02-03T08:42:33.499Z,2.30
2023-02-03T08:43:33.543Z,2.30
2023-02-03T08:44:33.451Z,2.60
2023-02-03T08:45:33.472Z,2.30
2023-02-03T08:46:33.651Z,2.10
2023-02-03T08:47:33.441Z,2.30
2023-02-03T08:48:33.449Z,2.40
2023-02-03T08:49:33.396Z,2.20
2023-02-03T08:50:33.413Z,2.30
2023-02-03T08:51:33.370Z,2.70
2023-02-03T08:52:33.405Z,2.50
2023-02-03T08:53:33.367Z,2.70
2023-02-03T08:54:33.401Z,2.40
2023-02-03T08:55:33.306Z,2.60
2023-02-03T08:56:33.336Z,2.50
2023-02-03T08:57:33.327Z,2.40
2023-02-03T08:58:33.322Z,2.20
2023-02-03T08:59:33.255Z,3.00
2023-02-03T09:00:33.279Z,2.00
2023-02-03T09:01:33.232Z,2.40
2023-02-03T09:02:33.351Z,2.40
2023-02-03T09:03:33.252Z,2.20
2023-02-03T09:04:33.227Z,2.60
2023-02-03T09:05:33.218Z,2.20
2023-02-03T09:06:33.233Z,2.70
2023-02-03T09:07:33.213Z,2.10
2023-02-03T09:08:33.176Z,2.40
2023-02-03T09:09:33.443Z,2.60
2023-02-03T09:10:33.158Z,2.30
2023-02-03T09:11:33.120Z,2.40
2023-02-03T09:12:33.112Z,2.30
2023-02-03T09:13:33.092Z,2.40
2023-02-03T09:14:33.272Z,2.10
2023-02-03T09:15:33.082Z,2.30
2023-02-03T09:16:33.084Z,2.00
2023-02-03T09:17:33.048Z,3.00
2023-02-03T09:18:33.031Z,2.30
2023-02-03T09:19:35.463Z,2.80
2023-02-03T09:20:33.172Z,2.10
2023-02-03T09:21:37.330Z,2.30
2023-02-03T09:22:33.026Z,2.10
2023-02-03T09:23:32.947Z,2.30
2023-02-03T09:24:33.179Z,2.30
2023-02-03T09:25:32.954Z,2.10
2023-02-03T09:26:32.929Z,2.50
2023-02-03T09:27:32.888Z,2.30
2023-02-03T09:28:32.918Z,2.60
2023-02-03T09:29:32.874Z,2.40
2023-02-03T09:30:33.048Z,2.30
2023-02-03T09:31:32.929Z,2.40
2023-02-03T09:32:32.839Z,2.50
2023-02-03T09:33:32.837Z,2.10
2023-02-03T09:34:32.843Z,2.60
2023-02-03T09:35:32.795Z,6.00
2023-02-03T09:36:32.847Z,3.10
2023-02-03T09:37:32.767Z,2.70
2023-02-03T09:38:32.799Z,2.90
2023-02-03T09:39:32.768Z,2.50
2023-02-03T09:40:32.774Z,2.10
2023-02-03T09:41:32.712Z,2.90
2023-02-03T09:42:32.777Z,2.80
2023-02-03T09:43:32.694Z,2.70
2023-02-03T09:44:32.703Z,2.40
2023-02-03T09:45:32.671Z,3.00
2023-02-03T09:46:32.684Z,2.70
2023-02-03T09:47:32.660Z,3.00
2023-02-03T09:48:32.673Z,3.50
2023-02-03T09:49:32.609Z,3.20
2023-02-03T09:50:32.625Z,3.00
2023-02-03T09:51:32.592Z,2.10
2023-02-03T09:52:32.636Z,2.80
2023-02-03T09:53:32.588Z,3.10
2023-02-03T09:54:32.593Z,3.00
2023-02-03T09:55:32.557Z,3.50
2023-02-03T09:56:32.552Z,2.60
2023-02-03T09:57:32.516Z,2.60
2023-02-03T09:58:32.557Z,2.40
2023-02-03T09:59:32.489Z,2.60
2023-02-03T10:00:32.502Z,2.30
2023-02-03T10:01:32.499Z,2.20
2023-02-03T10:02:32.567Z,2.90
2023-02-03T10:03:32.465Z,2.40
2023-02-03T10:04:32.461Z,2.20
2023-02-03T10:05:32.438Z,2.30
2023-02-03T10:06:32.433Z,2.20
2023-02-03T10:07:32.373Z,2.10
2023-02-03T10:08:32.454Z,2.60
2023-02-03T10:09:32.375Z,2.30
2023-02-03T10:10:32.396Z,2.60
2023-02-03T10:11:32.314Z,2.40
2023-02-03T10:12:32.349Z,2.20
2023-02-03T10:13:32.303Z,2.50
2023-02-03T10:14:32.308Z,2.30
2023-02-03T10:15:32.348Z,2.50
2023-02-03T10:16:32.365Z,2.40
2023-02-03T10:17:32.273Z,2.20
2023-02-03T10:18:32.330Z,2.80
2023-02-03T10:19:32.223Z,2.50
2023-02-03T10:20:32.240Z,2.30
2023-02-03T10:21:32.212Z,2.50
2023-02-03T10:22:32.250Z,2.30
2023-02-03T10:23:32.239Z,2.80
2023-02-03T10:24:32.207Z,2.20
2023-02-03T10:25:32.194Z,2.50
2023-02-03T10:26:32.187Z,2.60
2023-02-03T10:27:32.117Z,2.40
2023-02-03T10:28:32.132Z,2.50
2023-02-03T10:29:32.120Z,2.20
2023-02-03T10:30:32.831Z,2.30
2023-02-03T10:31:32.205Z,2.80
2023-02-03T10:32:32.104Z,2.20
2023-02-03T10:33:32.082Z,2.20
2023-02-03T10:34:32.044Z,2.10
2023-02-03T10:35:32.274Z,2.50
2023-02-03T10:36:32.065Z,2.30
2023-02-03T10:37:31.991Z,2.30
2023-02-03T10:38:32.007Z,2.20
2023-02-03T10:39:32.017Z,1.90
2023-02-03T10:40:31.991Z,2.80
2023-02-03T10:41:31.971Z,2.10
2023-02-03T10:42:31.957Z,2.50
2023-02-03T10:43:31.912Z,2.40
2023-02-03T10:44:31.971Z,2.30
2023-02-03T10:45:31.901Z,2.50
2023-02-03T10:46:31.991Z,2.50
2023-02-03T10:47:31.868Z,2.40
2023-02-03T10:48:31.878Z,2.20
2023-02-03T10:49:31.909Z,2.40
2023-02-03T10:50:32.618Z,2.30
2023-02-03T10:51:31.861Z,2.30
2023-02-03T10:52:31.835Z,2.30
2023-02-03T10:53:31.777Z,2.20
2023-02-03T10:54:31.862Z,1.90
2023-02-03T10:55:31.781Z,2.00
2023-02-03T10:56:31.790Z,2.60
2023-02-03T10:57:31.722Z,2.50
2023-02-03T10:58:31.772Z,2.40
2023-02-03T10:59:31.764Z,2.10
2023-02-03T11:00:31.714Z,2.70
2023-02-03T11:01:31.753Z,1.90
2023-02-03T11:02:31.762Z,2.70
2023-02-03T11:03:31.680Z,2.50
2023-02-03T11:04:31.658Z,2.20
2023-02-03T11:05:31.665Z,2.70
2023-02-03T11:06:31.661Z,2.60
2023-02-03T11:07:31.611Z,2.20
2023-02-03T11:08:31.611Z,2.20
2023-02-03T11:09:31.649Z,2.00
2023-02-03T11:10:31.584Z,2.50
2023-02-03T11:11:31.671Z,2.30
2023-02-03T11:12:31.556Z,2.10
2023-02-03T11:13:31.573Z,2.90
2023-02-03T11:14:31.534Z,2.50
2023-02-03T11:15:31.521Z,2.30
2023-02-03T11:16:31.535Z,2.10
2023-02-03T11:17:31.481Z,2.20
2023-02-03T11:18:31.491Z,2.00
2023-02-03T11:19:31.451Z,2.20
2023-02-03T11:20:31.465Z,1.70
2023-02-03T11:21:31.460Z,1.40
2023-02-03T11:22:31.472Z,1.40
2023-02-03T11:23:31.381Z,1.60
2023-02-03T11:24:31.428Z,1.20
2023-02-03T11:25:31.390Z,1.30
2023-02-03T11:26:31.390Z,1.10
2023-02-03T11:27:31.351Z,1.00
2023-02-03T11:28:31.429Z,1.10
2023-02-03T11:29:31.358Z,1.00
2023-02-03T11:30:31.600Z,1.00
2023-02-03T11:31:31.409Z,1.40
2023-02-03T11:32:31.320Z,1.30
2023-02-03T11:33:31.270Z,1.40
2023-02-03T11:34:31.308Z,1.00
2023-02-03T11:35:31.241Z,1.00
2023-02-03T11:36:31.246Z,0.80
2023-02-03T11:37:31.250Z,0.80
2023-02-03T11:38:31.222Z,0.90
2023-02-03T11:39:31.187Z,0.80
2023-02-03T11:40:31.190Z,0.90
2023-02-03T11:41:31.153Z,1.10
2023-02-03T11:42:31.207Z,1.20
2023-02-03T11:43:31.157Z,1.30
2023-02-03T11:44:31.184Z,1.10
2023-02-03T11:45:31.097Z,1.00
2023-02-03T11:46:31.178Z,1.00
2023-02-03T11:47:31.081Z,1.10
2023-02-03T11:48:31.083Z,1.10
2023-02-03T11:49:31.050Z,1.00
2023-02-03T11:50:31.325Z,0.80
2023-02-03T11:51:31.031Z,0.90
2023-02-03T11:52:31.091Z,1.00
2023-02-03T11:53:31.038Z,1.10
2023-02-03T11:54:31.019Z,0.80
2023-02-03T11:55:30.979Z,1.10
2023-02-03T11:56:31.023Z,1.70
2023-02-03T11:57:30.946Z,1.40
2023-02-03T11:58:30.970Z,4.10
2023-02-03T11:59:30.936Z,2.20
2023-02-03T12:00:30.986Z,1.50
2023-02-03T12:01:31.017Z,1.20
2023-02-03T12:02:31.001Z,1.60
2023-02-03T12:03:30.898Z,3.60
2023-02-03T12:04:30.951Z,5.30
2023-02-03T12:05:30.872Z,3.70
2023-02-03T12:06:30.871Z,3.70
2023-02-03T12:07:30.842Z,2.30
2023-02-03T12:08:30.844Z,1.70
2023-02-03T12:09:30.797Z,2.90
2023-02-03T12:10:31.057Z,1.10
2023-02-03T12:11:30.830Z,1.10
2023-02-03T12:12:30.795Z,0.90
2023-02-03T12:13:30.769Z,1.00
2023-02-03T12:14:30.759Z,0.90
2023-02-03T12:15:30.704Z,1.00
2023-02-03T12:16:30.766Z,1.10
2023-02-03T12:17:30.697Z,1.00
2023-02-03T12:18:30.747Z,0.90
2023-02-03T12:19:30.674Z,0.80
2023-02-03T12:20:31.145Z,0.80
2023-02-03T12:21:30.653Z,0.90
2023-02-03T12:22:30.671Z,59.70
2023-02-03T12:23:30.644Z,46.10
2023-02-03T12:24:30.646Z,1.30
2023-02-03T12:25:30.620Z,1.20
2023-02-03T12:26:30.609Z,1.60
2023-02-03T12:27:30.567Z,5.50
2023-02-03T12:28:33.781Z,7.60
2023-02-03T12:29:32.410Z,14.40
2023-02-03T12:30:31.065Z,23.30
2023-02-03T12:31:30.562Z,33.30
2023-02-03T12:32:30.529Z,71.70
2023-02-03T12:33:30.501Z,27.00
2023-02-03T12:34:30.507Z,20.00
2023-02-03T12:35:31.990Z,14.20
2023-02-03T12:36:30.480Z,5.60
2023-02-03T12:37:30.447Z,10.60
2023-02-03T12:38:30.486Z,12.40
2023-02-03T12:39:30.424Z,10.00
2023-02-03T12:40:30.819Z,9.30
2023-02-03T12:41:30.408Z,5.50
2023-02-03T12:42:30.394Z,4.20
2023-02-03T12:43:30.355Z,2.50
2023-02-03T12:44:30.376Z,3.70
2023-02-03T12:45:30.390Z,4.30
2023-02-03T12:46:30.382Z,2.50
2023-02-03T12:47:30.313Z,10.50
2023-02-03T12:48:30.336Z,7.70
2023-02-03T12:49:30.276Z,8.10
2023-02-03T12:50:30.739Z,6.60
2023-02-03T12:51:30.283Z,8.30
2023-02-03T12:52:30.275Z,22.30
2023-02-03T12:53:30.233Z,18.10
2023-02-03T12:54:30.246Z,30.00
2023-02-03T12:55:30.198Z,13.20
2023-02-03T12:56:30.263Z,18.20
2023-02-03T12:57:30.186Z,11.40
2023-02-03T12:58:31.161Z,7.10
2023-02-03T12:59:30.149Z,5.90
2023-02-03T13:00:30.645Z,6.80
2023-02-03T13:01:30.233Z,9.20
2023-02-03T13:02:30.210Z,7.70
2023-02-03T13:03:30.128Z,9.30
2023-02-03T13:04:30.104Z,8.60
2023-02-03T13:05:30.090Z,12.50
2023-02-03T13:06:30.065Z,4.80
2023-02-03T13:07:30.122Z,5.90
2023-02-03T13:08:30.069Z,3.00
2023-02-03T13:09:30.044Z,1.80
2023-02-03T13:10:30.246Z,2.90
2023-02-03T13:11:30.021Z,2.80
2023-02-03T13:12:29.997Z,3.40
2023-02-03T13:13:30.014Z,2.50
2023-02-03T13:14:29.967Z,1.80
2023-02-03T13:15:29.977Z,2.50
2023-02-03T13:16:30.003Z,7.20
2023-02-03T13:17:29.979Z,2.00